Time;durP1;ratioP1;P1;durP2;ratioP2;P2;SDS_P1;SDS_P2;PMS_P1;PMS_P2;Temp;Humidity;BMP_temperature;BMP_pressure;BME280_temperature;BME280_humidity;BME280_pressure;Samples;Min_cycle;Max_cycle;Signal;HPM_P1;HPM_P2
2023/01/20 00:01:38;;;;;;;51.70;22.92;;;-0.30;99.90;;;-2.01;100.00;100088.56;5004734;28;20033;-70
2023/01/20 00:04:05;;;;;;;53.83;23.13;;;-0.30;99.90;;;-2.09;100.00;100091.16;5009986;28;20066;-69
2023/01/20 00:06:31;;;;;;;53.38;21.75;;;-0.30;99.90;;;-2.08;100.00;100099.00;5009016;28;20033;-68
2023/01/20 00:09:00;;;;;;;51.78;20.77;;;-0.30;99.90;;;-2.00;100.00;100098.25;5004153;28;20405;-68
2023/01/20 00:11:27;;;;;;;48.42;21.45;;;-0.30;99.90;;;-2.00;100.00;100105.44;5010453;28;20379;-68
2023/01/20 00:13:59;;;;;;;54.33;22.60;;;-0.20;99.90;;;-2.01;100.00;100107.28;4997979;28;20066;-69
2023/01/20 00:16:26;;;;;;;53.97;21.58;;;-0.20;99.90;;;-2.02;100.00;100113.63;5004218;28;20034;-69
2023/01/20 00:18:53;;;;;;;49.77;21.10;;;-0.20;99.90;;;-1.96;100.00;100114.88;4994059;28;20542;-70
2023/01/20 00:21:19;;;;;;;46.05;20.30;;;-0.20;99.90;;;-1.97;100.00;100110.50;5004523;28;20045;-70
2023/01/20 00:23:47;;;;;;;60.88;22.35;;;-0.20;99.90;;;-1.97;100.00;100126.56;5005639;28;20046;-69
2023/01/20 00:26:19;;;;;;;56.13;21.02;;;-0.20;99.90;;;-1.99;100.00;100128.50;5002861;28;20046;-70
2023/01/20 00:28:46;;;;;;;41.17;19.35;;;-0.20;99.90;;;-2.03;100.00;100128.81;4996106;28;20038;-70
2023/01/20 00:31:14;;;;;;;49.08;19.55;;;-0.20;99.90;;;-2.09;100.00;100133.91;5005906;28;20038;-70
2023/01/20 00:33:40;;;;;;;46.37;19.00;;;-0.30;99.90;;;-2.10;100.00;100138.41;5001238;28;20034;-70
2023/01/20 00:36:07;;;;;;;46.20;19.45;;;-0.30;99.90;;;-2.17;100.00;100142.66;5010560;28;20381;-70
2023/01/20 00:38:33;;;;;;;49.85;20.48;;;-0.40;99.90;;;-2.23;100.00;100149.44;5010712;28;20444;-70
2023/01/20 00:40:59;;;;;;;48.15;20.15;;;-0.50;99.90;;;-2.24;100.00;100153.09;5012075;28;20089;-69
2023/01/20 00:43:24;;;;;;;53.70;18.88;;;-0.40;99.90;;;-2.27;100.00;100139.16;4995280;28;20474;-70
2023/01/20 00:45:50;;;;;;;43.63;19.95;;;-0.50;99.90;;;-2.25;100.00;100145.22;5007120;28;20037;-70
2023/01/20 00:48:16;;;;;;;46.08;19.58;;;-0.50;99.90;;;-2.24;100.00;100147.75;5008565;28;20461;-70
2023/01/20 00:50:41;;;;;;;48.90;19.88;;;-0.50;99.90;;;-2.27;100.00;100147.19;5010824;28;20038;-69
2023/01/20 00:53:07;;;;;;;42.80;18.58;;;-0.50;99.90;;;-2.32;100.00;100158.31;5010487;28;20050;-70
2023/01/20 00:55:33;;;;;;;47.80;18.55;;;-0.50;99.90;;;-2.38;100.00;100157.06;5007829;28;20041;-70
2023/01/20 00:57:59;;;;;;;45.92;20.08;;;-0.60;99.90;;;-2.39;100.00;100160.72;5013561;28;20110;-70
2023/01/20 01:00:24;;;;;;;47.75;19.40;;;-0.60;99.90;;;-2.33;100.00;100162.00;5015938;28;20049;-70
2023/01/20 01:02:50;;;;;;;52.78;20.98;;;-0.50;99.90;;;-2.38;100.00;100164.25;5013945;28;20038;-70
2023/01/20 01:05:16;;;;;;;52.45;19.70;;;-0.60;99.90;;;-2.31;100.00;100168.84;5013426;28;20509;-70
2023/01/20 01:07:42;;;;;;;51.08;20.50;;;-0.50;99.90;;;-2.33;100.00;100162.81;4997716;28;20042;-70
2023/01/20 01:10:09;;;;;;;47.63;21.42;;;-0.50;99.90;;;-2.41;100.00;100170.72;5008424;28;20041;-70
2023/01/20 01:12:34;;;;;;;47.88;20.02;;;-0.60;99.90;;;-2.44;100.00;100172.81;5005513;28;20045;-70
2023/01/20 01:15:01;;;;;;;53.60;20.60;;;-0.60;99.90;;;-2.45;100.00;100177.34;5007126;28;20074;-69
2023/01/20 01:17:26;;;;;;;55.08;20.65;;;-0.70;99.90;;;-2.55;100.00;100177.34;5002919;28;20112;-69
2023/01/20 01:19:52;;;;;;;52.33;21.27;;;-0.70;99.90;;;-2.52;100.00;100182.41;5004471;28;20042;-69
2023/01/20 01:22:20;;;;;;;49.42;20.42;;;-0.70;99.90;;;-2.53;100.00;100177.19;5012938;28;20033;-69
2023/01/20 01:24:47;;;;;;;47.10;19.50;;;-0.70;99.90;;;-2.53;100.00;100179.88;5013037;28;20381;-69
2023/01/20 01:27:13;;;;;;;52.60;21.58;;;-0.80;99.90;;;-2.52;100.00;100182.41;5002318;28;20218;-69
2023/01/20 01:29:39;;;;;;;47.83;20.40;;;-0.70;99.90;;;-2.52;100.00;100186.88;5009361;28;20493;-69
2023/01/20 01:32:06;;;;;;;48.17;19.52;;;-0.70;99.90;;;-2.43;100.00;100186.06;5006012;28;20072;-70
2023/01/20 01:34:32;;;;;;;52.33;20.25;;;-0.70;99.90;;;-2.47;100.00;100190.81;5001869;28;20042;-70
2023/01/20 01:36:58;;;;;;;47.28;18.77;;;-0.70;99.90;;;-2.49;100.00;100182.13;5006565;28;20050;-70
2023/01/20 01:39:24;;;;;;;46.55;20.33;;;-0.70;99.90;;;-2.53;100.00;100190.53;4994447;28;20382;-70
2023/01/20 01:41:50;;;;;;;46.58;19.65;;;-0.70;99.90;;;-2.57;100.00;100198.03;5011293;28;20038;-70
2023/01/20 01:44:16;;;;;;;51.65;21.20;;;-0.80;99.90;;;-2.57;100.00;100198.03;5009152;28;20104;-70
2023/01/20 01:46:42;;;;;;;46.75;20.20;;;-0.80;99.90;;;-2.54;100.00;100191.53;5005768;28;20030;-70
2023/01/20 01:49:25;;;;;;;50.58;20.15;;;-0.70;99.90;;;-2.52;100.00;100187.75;4996821;28;20069;-70
2023/01/20 01:52:03;;;;;;;49.35;20.38;;;-0.70;99.90;;;-2.52;100.00;100190.41;5008772;28;20046;-70
2023/01/20 01:54:42;;;;;;;51.03;20.13;;;-0.80;99.90;;;-2.54;100.00;100189.72;5016574;28;20046;-70
2023/01/20 01:57:08;;;;;;;53.85;18.73;;;-0.70;99.90;;;-2.44;100.00;100195.06;4996870;28;20490;-70
2023/01/20 01:59:36;;;;;;;52.10;20.67;;;-0.70;99.90;;;-2.46;100.00;100189.84;5019948;28;20113;-70
2023/01/20 02:02:02;;;;;;;48.65;20.70;;;-0.70;99.90;;;-2.39;100.00;100194.59;5012209;28;20034;-69
2023/01/20 02:04:30;;;;;;;47.72;20.02;;;-0.70;99.90;;;-2.44;100.00;100195.06;5002026;28;20041;-70
2023/01/20 02:07:03;;;;;;;50.60;20.85;;;-0.60;99.90;;;-2.36;100.00;100200.50;5000958;28;20127;-70
2023/01/20 02:09:30;;;;;;;50.83;20.85;;;-0.60;99.90;;;-2.29;100.00;100194.59;4995428;28;20053;-69
2023/01/20 02:12:04;;;;;;;53.22;20.73;;;-0.60;99.90;;;-2.35;100.00;100198.69;4995236;28;20045;-71
2023/01/20 02:14:41;;;;;;;51.20;20.85;;;-0.60;99.90;;;-2.36;100.00;100197.00;4995515;28;20409;-70
2023/01/20 02:17:24;;;;;;;44.42;21.10;;;-0.60;99.90;;;-2.37;100.00;100206.84;5010796;28;20044;-69
2023/01/20 02:20:42;;;;;;;51.88;21.52;;;-0.60;99.90;;;-2.31;100.00;100219.63;5006368;28;20038;-70
2023/01/20 02:23:28;;;;;;;49.15;20.80;;;-0.50;99.90;;;-2.33;100.00;100212.75;4993846;28;20389;-70
2023/01/20 02:26:15;;;;;;;46.40;20.65;;;-0.50;99.90;;;-2.36;100.00;100213.06;4995402;28;20390;-70
2023/01/20 02:29:05;;;;;;;47.67;20.73;;;-0.60;99.90;;;-2.34;100.00;100217.25;5010768;28;20041;-70
2023/01/20 02:32:05;;;;;;;48.75;21.00;;;-0.50;99.90;;;-2.32;100.00;100225.97;5011710;28;20113;-69
2023/01/20 02:35:02;;;;;;;47.47;20.10;;;-0.50;99.90;;;-2.28;100.00;100221.19;5002493;28;20508;-70
2023/01/20 02:37:46;;;;;;;51.42;21.05;;;-0.50;99.90;;;-2.26;100.00;100232.56;5003455;28;20129;-70
2023/01/20 02:40:53;;;;;;;53.75;20.88;;;-0.50;99.90;;;-2.21;100.00;100238.31;5007821;28;20496;-70
2023/01/20 02:43:41;;;;;;;48.20;19.70;;;-0.40;99.90;;;-2.29;100.00;100238.22;4982775;28;20050;-70
2023/01/20 02:46:35;;;;;;;47.65;21.13;;;-0.50;99.90;;;-2.17;100.00;100238.88;5008438;28;20449;-70
2023/01/20 02:49:31;;;;;;;49.35;20.83;;;-0.40;99.90;;;-2.19;100.00;100244.38;4998468;28;20049;-70
2023/01/20 02:52:12;;;;;;;48.08;19.63;;;-0.40;99.90;;;-2.23;100.00;100242.97;5011256;28;20537;-70
2023/01/20 02:54:43;;;;;;;52.03;22.02;;;-0.40;99.90;;;-2.27;100.00;100252.25;5011347;28;20044;-70
2023/01/20 02:57:15;;;;;;;48.90;20.05;;;-0.40;99.90;;;-2.29;100.00;100253.38;5011374;28;20030;-70
2023/01/20 02:59:47;;;;;;;44.22;19.52;;;-0.40;99.90;;;-2.34;100.00;100257.31;5016044;28;20092;-70
2023/01/20 03:02:19;;;;;;;49.38;20.52;;;-0.50;99.90;;;-2.36;100.00;100261.16;5007177;28;20030;-70
2023/01/20 03:05:03;;;;;;;46.35;19.33;;;-0.50;99.90;;;-2.40;100.00;100268.59;5003166;28;20049;-70
2023/01/20 03:07:33;;;;;;;44.47;20.08;;;-0.50;99.90;;;-2.42;100.00;100259.03;5005486;28;20050;-70
2023/01/20 03:10:06;;;;;;;46.63;20.40;;;-0.50;99.90;;;-2.38;100.00;100261.28;4984495;28;20035;-70
2023/01/20 03:12:45;;;;;;;44.33;19.13;;;-0.50;99.90;;;-2.41;100.00;100271.41;5001294;28;20099;-70
2023/01/20 03:15:12;;;;;;;49.60;20.92;;;-0.50;99.90;;;-2.46;100.00;100266.50;5010610;28;20084;-70
2023/01/20 03:17:38;;;;;;;49.97;20.67;;;-0.60;99.90;;;-2.44;100.00;100271.69;5005897;28;20040;-70
2023/01/20 03:20:04;;;;;;;49.03;20.83;;;-0.60;99.90;;;-2.52;100.00;100275.03;5003695;28;20026;-70
2023/01/20 03:22:31;;;;;;;51.58;20.27;;;-0.70;99.90;;;-2.53;100.00;100271.56;4999023;28;20046;-70
2023/01/20 03:24:58;;;;;;;52.58;20.23;;;-0.70;99.90;;;-2.50;100.00;100270.44;5002923;28;20401;-70
2023/01/20 03:27:25;;;;;;;53.63;20.00;;;-0.70;99.90;;;-2.50;100.00;100273.09;5003682;28;20145;-70
2023/01/20 03:29:51;;;;;;;49.65;21.17;;;-0.70;99.90;;;-2.50;100.00;100273.09;5005107;28;20079;-70
2023/01/20 03:32:25;;;;;;;53.40;19.30;;;-0.70;99.90;;;-2.51;100.00;100279.44;5007068;28;20036;-70
2023/01/20 03:34:54;;;;;;;46.72;19.38;;;-0.60;99.90;;;-2.57;100.00;100277.31;4975802;28;20041;-70
2023/01/20 03:37:21;;;;;;;46.33;18.73;;;-0.70;99.90;;;-2.57;100.00;100278.16;5010152;28;20045;-70
2023/01/20 03:39:48;;;;;;;47.40;18.48;;;-0.70;99.90;;;-2.60;100.00;100289.13;4995049;28;20040;-70
2023/01/20 03:42:34;;;;;;;45.50;18.27;;;-0.70;99.90;;;-2.53;100.00;100289.38;5004680;28;20035;-70
2023/01/20 03:45:18;;;;;;;43.95;18.75;;;-0.80;99.90;;;-2.54;100.00;100296.59;5007945;28;20394;-71
2023/01/20 03:48:22;;;;;;;42.22;18.50;;;-0.80;99.90;;;-2.57;100.00;100302.19;5006065;28;20159;-69
2023/01/20 03:51:17;;;;;;;46.30;18.77;;;-0.80;99.90;;;-2.62;100.00;100296.44;5008052;28;20057;-69
2023/01/20 03:53:56;;;;;;;39.28;17.17;;;-0.80;99.90;;;-2.64;100.00;100301.09;5003079;28;20046;-70
2023/01/20 03:56:46;;;;;;;40.65;17.30;;;-0.90;99.90;;;-2.70;100.00;100306.97;5002703;28;20025;-70
2023/01/20 03:59:14;;;;;;;43.55;16.77;;;-0.90;99.90;;;-2.73;100.00;100308.09;4994031;28;20112;-70
2023/01/20 04:01:43;;;;;;;42.72;18.42;;;-1.00;99.90;;;-2.69;100.00;100319.31;5008973;28;20398;-70
2023/01/20 04:04:17;;;;;;;45.13;18.00;;;-1.00;99.90;;;-2.75;100.00;100318.06;5006800;28;20497;-70
2023/01/20 04:06:45;;;;;;;49.45;17.98;;;-1.00;99.90;;;-2.74;100.00;100317.09;5013849;28;20083;-70
2023/01/20 04:09:18;;;;;;;;;;;-0.90;99.90;;;-2.81;100.00;100319.47;5003453;28;20050;-70
2023/01/20 04:11:44;;;;;;;41.40;17.10;;;-1.00;99.90;;;-2.83;100.00;100312.56;5000884;28;19918;-70
2023/01/20 04:14:10;;;;;;;42.53;18.23;;;-1.00;99.90;;;-2.89;100.00;100327.31;5007584;28;20045;-70
2023/01/20 04:16:36;;;;;;;46.40;18.98;;;-1.10;99.90;;;-2.93;100.00;100324.06;5026278;28;20042;-70
2023/01/20 04:19:03;;;;;;;46.83;18.52;;;-1.10;99.90;;;-2.94;100.00;100327.72;5014562;28;20049;-71
2023/01/20 04:22:04;;;;;;;44.25;18.60;;;-1.10;99.90;;;-2.89;100.00;100330.00;5010429;28;20455;-70
2023/01/20 04:24:51;;;;;;;41.42;17.48;;;-1.00;99.90;;;-2.90;100.00;100329.13;5011180;28;20121;-70
2023/01/20 04:27:16;;;;;;;44.40;18.85;;;-1.00;99.90;;;-2.86;100.00;100329.72;5011432;28;20042;-70
2023/01/20 04:29:42;;;;;;;43.35;17.95;;;-1.00;99.90;;;-2.84;100.00;100332.22;5010374;28;20041;-69
2023/01/20 04:32:11;;;;;;;42.33;17.83;;;-1.00;99.90;;;-2.85;100.00;100342.09;4998630;28;20104;-71
2023/01/20 04:34:37;;;;;;;43.35;18.65;;;-0.90;99.90;;;-2.89;100.00;100341.50;5013396;28;20425;-70
2023/01/20 04:37:03;;;;;;;45.95;18.92;;;-1.00;99.90;;;-2.93;100.00;100340.09;4992775;28;20133;-70
2023/01/20 04:39:28;;;;;;;43.80;18.38;;;-1.00;99.90;;;-2.92;100.00;100347.13;5013177;28;20026;-70
2023/01/20 04:41:54;;;;;;;46.35;18.80;;;-1.00;99.90;;;-3.02;100.00;100340.91;5013866;28;20058;-71
2023/01/20 04:44:20;;;;;;;46.40;18.33;;;-1.10;99.90;;;-3.06;100.00;100351.00;5012553;28;20489;-70
2023/01/20 04:46:46;;;;;;;44.13;17.58;;;-1.10;99.90;;;-3.12;100.00;100364.03;5003103;28;20038;-70
2023/01/20 04:49:13;;;;;;;40.42;16.90;;;-1.30;99.90;;;-3.22;100.00;100364.00;5007281;28;20088;-71
2023/01/20 04:51:39;;;;;;;42.50;17.42;;;-1.40;99.90;;;-3.39;100.00;100358.31;5014384;28;20026;-71
2023/01/20 04:54:06;;;;;;;40.05;16.63;;;-1.60;99.90;;;-3.49;100.00;100360.09;5019263;28;20546;-71
2023/01/20 04:56:31;;;;;;;41.70;16.92;;;-1.70;99.90;;;-3.57;100.00;100357.25;4995292;28;20049;-71
2023/01/20 04:58:57;;;;;;;40.13;17.00;;;-1.70;99.90;;;-3.58;100.00;100366.22;5009831;28;20419;-71
2023/01/20 05:01:24;;;;;;;44.13;16.95;;;-1.80;99.90;;;-3.64;100.00;100362.25;5008697;28;20042;-71
2023/01/20 05:03:49;;;;;;;37.28;17.23;;;-1.80;99.90;;;-3.73;100.00;100363.88;5012566;28;20125;-71
2023/01/20 05:06:17;;;;;;;43.17;15.80;;;-1.90;99.90;;;-3.79;100.00;100361.72;5001849;28;20038;-71
2023/01/20 05:08:43;;;;;;;41.35;16.98;;;-1.90;99.90;;;-3.85;100.00;100359.59;5007485;28;20116;-71
2023/01/20 05:11:09;;;;;;;46.05;17.42;;;-2.00;99.90;;;-3.83;100.00;100361.16;5012972;28;20044;-71
2023/01/20 05:13:38;;;;;;;39.60;16.20;;;-2.00;99.90;;;-3.78;100.00;100371.41;5022693;28;20034;-71
2023/01/20 05:16:06;;;;;;;42.47;16.17;;;-2.00;99.90;;;-3.82;100.00;100365.53;5003575;28;20114;-71
2023/01/20 05:18:32;;;;;;;36.28;15.98;;;-2.00;99.90;;;-3.94;100.00;100370.06;5022036;28;20029;-71
2023/01/20 05:20:59;;;;;;;38.92;16.23;;;-2.10;99.90;;;-3.96;100.00;100369.34;4994157;28;20054;-71
2023/01/20 05:23:25;;;;;;;38.92;17.02;;;-2.10;99.90;;;-3.91;100.00;100367.16;5004256;28;20505;-71
2023/01/20 05:25:52;;;;;;;41.83;16.98;;;-2.10;99.90;;;-3.85;100.00;100378.25;4997303;28;20038;-71
2023/01/20 05:28:18;;;;;;;45.90;18.35;;;-2.00;99.90;;;-3.80;100.00;100376.03;5008715;28;20087;-71
2023/01/20 05:30:44;;;;;;;45.10;16.55;;;-1.90;99.90;;;-3.68;100.00;100382.16;5012801;28;20042;-71
2023/01/20 05:33:10;;;;;;;46.53;17.63;;;-1.90;99.90;;;-3.64;100.00;100381.78;5007250;28;20148;-71
2023/01/20 05:35:39;;;;;;;47.50;16.40;;;-1.70;99.90;;;-3.61;100.00;100375.31;4996767;28;20549;-71
2023/01/20 05:38:05;;;;;;;45.20;18.05;;;-1.70;99.90;;;-3.59;100.00;100377.88;5008763;28;20034;-71
2023/01/20 05:40:31;;;;;;;46.95;18.25;;;-1.70;99.90;;;-3.63;100.00;100378.13;5010393;28;20054;-71
2023/01/20 05:43:01;;;;;;;48.28;18.73;;;-1.70;99.90;;;-3.65;100.00;100384.56;5016301;28;20038;-72
2023/01/20 05:45:28;;;;;;;52.65;18.33;;;-1.70;99.90;;;-3.67;100.00;100386.50;5013783;28;20046;-71
2023/01/20 05:47:59;;;;;;;44.42;17.67;;;-1.80;99.90;;;-3.61;100.00;100383.31;5016965;28;20048;-71
2023/01/20 05:50:27;;;;;;;48.35;18.10;;;-1.70;99.90;;;-3.45;100.00;100393.50;4998879;28;20446;-71
2023/01/20 05:52:53;;;;;;;43.28;17.88;;;-1.60;99.90;;;-3.37;100.00;100385.72;5027211;28;20070;-74
2023/01/20 05:55:19;;;;;;;43.88;18.13;;;-1.50;99.90;;;-3.31;100.00;100387.03;5005578;28;20076;-71
2023/01/20 05:57:45;;;;;;;46.20;18.15;;;-1.50;99.90;;;-3.27;100.00;100395.59;5001037;28;20545;-71
2023/01/20 06:00:12;;;;;;;49.47;18.63;;;-1.40;99.90;;;-3.23;100.00;100397.00;5002245;28;20113;-70
2023/01/20 06:02:39;;;;;;;43.50;17.90;;;-1.40;99.90;;;-3.20;100.00;100400.25;4996483;28;20112;-73
2023/01/20 06:05:05;;;;;;;45.83;17.83;;;-1.40;99.90;;;-3.22;100.00;100396.88;4999792;28;20109;-71
2023/01/20 06:07:31;;;;;;;40.72;18.73;;;-1.40;99.90;;;-3.36;100.00;100405.22;5000283;28;20069;-71
2023/01/20 06:09:57;;;;;;;44.15;17.23;;;-1.50;99.90;;;-3.49;100.00;100416.09;5012287;28;20038;-70
2023/01/20 06:12:23;;;;;;;47.97;18.42;;;-1.70;99.90;;;-3.58;100.00;100423.09;4995600;28;20034;-69
2023/01/20 06:14:49;;;;;;;41.22;17.17;;;-1.70;99.90;;;-3.60;100.00;100422.34;5002705;28;20073;-70
2023/01/20 06:17:15;;;;;;;44.42;17.48;;;-1.80;99.90;;;-3.65;100.00;100433.41;5001207;28;20550;-69
2023/01/20 06:19:41;;;;;;;43.33;17.85;;;-1.80;99.90;;;-3.71;100.00;100436.63;5001973;28;20109;-70
2023/01/20 06:22:13;;;;;;;43.38;17.80;;;-1.90;99.90;;;-3.80;100.00;100432.03;5011336;28;20139;-70
2023/01/20 06:24:38;;;;;;;41.85;17.05;;;-1.90;99.90;;;-3.87;100.00;100439.69;5006935;28;20042;-70
2023/01/20 06:27:04;;;;;;;38.28;16.48;;;-2.00;99.90;;;-4.04;100.00;100430.44;4993450;28;20104;-70
2023/01/20 06:29:30;;;;;;;41.92;16.77;;;-2.20;99.90;;;-4.12;100.00;100443.56;5002747;28;20044;-70
2023/01/20 06:31:56;;;;;;;47.63;17.45;;;-2.30;99.90;;;-4.10;100.00;100441.59;5009510;28;20040;-70
2023/01/20 06:34:22;;;;;;;42.67;18.85;;;-2.30;99.90;;;-4.22;100.00;100432.81;5006717;28;20149;-70
2023/01/20 06:36:48;;;;;;;47.67;17.65;;;-2.20;99.90;;;-4.09;100.00;100456.63;5011672;28;20042;-70
2023/01/20 06:39:14;;;;;;;51.92;18.40;;;-2.20;99.90;;;-3.95;100.00;100448.34;5013296;28;20034;-69
2023/01/20 06:41:40;;;;;;;49.25;19.60;;;-2.10;99.90;;;-3.87;100.00;100449.53;5007021;28;20114;-69
2023/01/20 06:44:05;;;;;;;59.08;22.05;;;-2.00;99.90;;;-3.68;100.00;100447.00;5011260;28;20049;-69
2023/01/20 06:46:31;;;;;;;57.53;21.17;;;-1.80;99.90;;;-3.52;100.00;100451.91;5000838;28;20035;-70
2023/01/20 06:48:59;;;;;;;58.38;22.50;;;-1.60;99.90;;;-3.38;100.00;100458.72;5004591;28;20046;-70
2023/01/20 06:51:26;;;;;;;;;;;-1.50;99.90;;;-3.28;100.00;100460.59;5011833;28;20036;-70
2023/01/20 06:53:53;;;;;;;54.30;21.88;;;-1.50;99.90;;;-3.20;100.00;100456.31;4993402;28;19949;-70
2023/01/20 06:56:20;;;;;;;61.58;22.70;;;-1.30;99.90;;;-3.14;100.00;100459.41;5004764;28;20529;-69
2023/01/20 06:58:46;;;;;;;54.25;22.45;;;-1.30;99.90;;;-3.09;100.00;100471.41;4984514;28;20046;-70
2023/01/20 07:01:22;;;;;;;61.53;21.80;;;-1.20;99.90;;;-3.07;100.00;100466.78;5006621;28;20045;-68
2023/01/20 07:03:48;;;;;;;51.88;21.50;;;-1.20;99.90;;;-3.15;100.00;100473.75;5001762;28;20030;-69
2023/01/20 07:06:39;;;;;;;68.13;24.30;;;-1.20;99.90;;;-3.08;100.00;100485.56;5011577;28;20092;-69
2023/01/20 07:09:07;;;;;;;55.92;22.05;;;-1.30;99.90;;;-3.14;100.00;100484.31;5002633;28;20042;-69
2023/01/20 07:11:34;;;;;;;60.13;22.80;;;-1.30;99.90;;;-3.15;100.00;100489.75;5010168;28;20029;-69
2023/01/20 07:14:01;;;;;;;59.15;22.58;;;-1.30;99.90;;;-3.24;100.00;100497.59;5013546;28;20504;-69
2023/01/20 07:16:27;;;;;;;46.67;20.45;;;-1.30;99.90;;;-3.36;100.00;100504.81;5004922;28;20038;-69
2023/01/20 07:18:54;;;;;;;50.00;21.00;;;-1.50;99.90;;;-3.56;100.00;100505.63;5006618;28;20045;-69
2023/01/20 07:21:20;;;;;;;56.00;20.02;;;-1.70;99.90;;;-3.77;100.00;100515.28;5008797;28;20044;-69
2023/01/20 07:23:47;;;;;;;48.45;18.38;;;-1.90;99.90;;;-3.97;100.00;100522.25;5016648;28;20057;-69
2023/01/20 07:26:17;;;;;;;46.95;19.48;;;-2.10;99.90;;;-4.14;100.00;100530.78;5013749;28;20040;-69
2023/01/20 07:28:43;;;;;;;48.90;18.75;;;-2.30;99.90;;;-4.28;100.00;100535.38;5009199;28;20043;-70
2023/01/20 07:31:12;;;;;;;46.38;19.60;;;-2.40;99.90;;;-4.20;100.00;100540.09;5010804;28;20436;-69
2023/01/20 07:33:38;;;;;;;52.08;20.63;;;-2.40;99.90;;;-3.90;100.00;100535.91;5001587;28;20038;-69
2023/01/20 07:36:06;;;;;;;53.58;20.80;;;-2.20;99.90;;;-3.65;100.00;100542.75;5011335;28;20478;-70
2023/01/20 07:38:33;;;;;;;50.15;21.38;;;-1.90;99.90;;;-3.67;100.00;100539.38;5010938;28;20112;-71
2023/01/20 07:41:02;;;;;;;55.47;22.17;;;-1.90;99.90;;;-3.77;100.00;100543.75;5022059;28;20502;-70
2023/01/20 07:43:28;;;;;;;52.38;21.08;;;-1.90;99.90;;;-3.87;100.00;100542.84;5016975;28;20072;-70
2023/01/20 07:46:03;;;;;;;54.45;21.50;;;-2.00;99.90;;;-3.97;100.00;100548.91;5010367;28;20026;-70
2023/01/20 07:48:31;;;;;;;53.10;20.30;;;-2.10;99.90;;;-3.98;100.00;100557.03;5010663;28;20046;-71
2023/01/20 07:51:04;;;;;;;49.53;21.50;;;-2.10;99.90;;;-3.92;100.00;100548.53;5005984;28;20038;-70
2023/01/20 07:53:37;;;;;;;47.63;20.23;;;-2.10;99.90;;;-3.86;100.00;100566.69;4997744;28;20085;-71
2023/01/20 07:56:28;;;;;;;47.15;19.52;;;-2.00;99.90;;;-3.77;100.00;100567.75;5004476;28;20088;-71
2023/01/20 07:58:54;;;;;;;54.25;21.38;;;-2.00;99.90;;;-3.71;100.00;100571.75;4996944;28;20038;-72
2023/01/20 08:01:29;;;;;;;53.22;20.80;;;-1.90;99.90;;;-3.66;100.00;100567.75;5003949;28;20099;-71
2023/01/20 08:03:57;;;;;;;53.85;20.58;;;-1.90;99.90;;;-3.52;100.00;100573.75;5006578;28;20038;-71
2023/01/20 08:06:25;;;;;;;46.90;18.98;;;-1.70;99.90;;;-3.37;100.00;100580.50;5006777;28;20153;-71
2023/01/20 08:08:51;;;;;;;55.95;21.35;;;-1.70;99.90;;;-3.27;100.00;100571.69;5023841;28;20057;-71
2023/01/20 08:11:20;;;;;;;47.38;20.60;;;-1.50;99.90;;;-3.20;100.00;100584.41;4987915;28;20038;-71
2023/01/20 08:13:46;;;;;;;47.72;20.70;;;-1.40;99.90;;;-3.19;100.00;100590.59;5005261;28;20143;-71
2023/01/20 08:16:15;;;;;;;46.28;20.13;;;-1.40;99.90;;;-3.14;100.00;100590.22;5003563;28;20129;-71
2023/01/20 08:18:41;;;;;;;48.10;21.52;;;-1.40;99.90;;;-3.06;100.00;100596.59;5009251;28;20375;-73
2023/01/20 08:21:19;;;;;;;50.13;21.08;;;-1.30;99.90;;;-2.97;100.00;100602.13;5004870;28;20049;-72
2023/01/20 08:23:45;;;;;;;;;;;-1.20;99.90;;;-2.92;100.00;100597.25;5005549;28;20093;-73
2023/01/20 08:26:11;;;;;;;46.58;19.27;;;-1.10;99.90;;;-2.77;100.00;100606.63;5010179;28;19917;-72
2023/01/20 08:28:36;;;;;;;55.85;22.42;;;-1.00;99.90;;;-2.66;100.00;100604.84;5010169;28;20116;-73
2023/01/20 08:31:15;;;;;;;50.50;21.48;;;-0.80;99.90;;;-2.48;100.00;100616.63;5010258;28;20416;-74
2023/01/20 08:33:42;;;;;;;;;;;-0.70;99.90;;;-2.31;100.00;100625.03;5009973;28;20478;-73
2023/01/20 08:36:13;;;;;;;50.13;20.05;;;-0.50;99.90;;;-2.26;100.00;100620.13;4992178;28;19978;-73
2023/01/20 08:38:39;;;;;;;49.30;21.35;;;-0.50;99.90;;;-2.21;100.00;100620.56;5002334;28;20041;-75
2023/01/20 08:41:14;;;;;;;53.08;21.02;;;-0.40;99.90;;;-2.18;100.00;100639.00;4996690;28;20042;-73
2023/01/20 08:43:39;;;;;;;49.53;20.90;;;-0.40;99.90;;;-2.19;100.00;100621.28;5005176;28;20042;-74
2023/01/20 08:46:10;;;;;;;44.05;19.83;;;-0.40;99.90;;;-2.07;100.00;100638.06;5004344;28;20056;-73
2023/01/20 08:48:38;;;;;;;42.85;19.35;;;-0.30;99.90;;;-1.99;100.00;100648.09;5011843;28;20061;-73
2023/01/20 08:51:08;;;;;;;49.70;22.33;;;-0.20;99.90;;;-1.89;100.00;100643.63;5012844;28;20099;-72
2023/01/20 08:53:35;;;;;;;49.13;21.08;;;-0.10;99.90;;;-1.79;100.00;100642.81;5010261;28;20444;-73
2023/01/20 08:56:01;;;;;;;51.15;21.20;;;0.00;99.90;;;-1.68;100.00;100640.03;5013228;28;20369;-73
2023/01/20 08:58:28;;;;;;;45.72;21.60;;;0.10;99.90;;;-1.62;100.00;100646.66;5013254;28;20034;-73
2023/01/20 09:00:54;;;;;;;50.05;21.13;;;0.10;99.90;;;-1.59;100.00;100643.72;5013281;28;20494;-73
2023/01/20 09:03:21;;;;;;;48.60;21.60;;;0.20;99.90;;;-1.54;100.00;100640.63;5011967;28;20077;-72
2023/01/20 09:05:48;;;;;;;47.28;20.23;;;0.30;99.90;;;-1.46;100.00;100649.69;5024547;28;20042;-72
2023/01/20 09:08:16;;;;;;;47.55;21.48;;;0.40;99.90;;;-1.37;100.00;100652.50;5011625;28;20040;-71
2023/01/20 09:10:43;;;;;;;;;;;0.40;99.90;;;-1.25;100.00;100653.22;5012945;28;20393;-72
2023/01/20 09:13:09;;;;;;;48.20;19.65;;;0.50;99.90;;;-1.16;100.00;100655.03;5008309;28;20277;-72
2023/01/20 09:15:34;;;;;;;46.25;20.90;;;0.60;99.90;;;-1.17;100.00;100643.50;5012598;28;20034;-74
2023/01/20 09:18:00;;;;;;;43.25;20.58;;;0.70;99.90;;;-1.10;100.00;100654.47;5011013;28;20037;-72
2023/01/20 09:20:27;;;;;;;42.13;18.58;;;0.80;99.90;;;-1.00;100.00;100665.19;5013372;28;20375;-73
2023/01/20 09:22:53;;;;;;;43.10;20.23;;;0.80;99.90;;;-0.97;100.00;100666.75;5011284;28;20505;-72
2023/01/20 09:25:19;;;;;;;40.08;18.10;;;0.80;99.90;;;-0.94;100.00;100672.66;5012962;28;20068;-71
2023/01/20 09:27:45;;;;;;;41.15;18.75;;;0.90;99.90;;;-0.81;100.00;100683.09;4995890;28;20066;-72
2023/01/20 09:30:11;;;;;;;50.58;19.35;;;1.00;99.90;;;-0.76;100.00;100680.00;5012364;28;20046;-73
2023/01/20 09:32:37;;;;;;;44.45;19.08;;;1.00;99.90;;;-0.65;100.00;100684.38;5012207;28;20112;-71
2023/01/20 09:35:04;;;;;;;36.30;18.60;;;1.10;99.90;;;-0.50;100.00;100684.78;4994774;28;20145;-72
2023/01/20 09:43:55;;;;;;;35.90;17.77;;;1.70;99.90;;;0.24;100.00;100690.34;5003312;28;20057;-73
2023/01/20 09:47:18;;;;;;;36.67;18.15;;;2.00;99.90;;;0.43;100.00;100694.78;5006756;28;20121;-72
2023/01/20 09:53:17;;;;;;;31.38;15.63;;;2.50;99.90;;;1.08;100.00;100706.41;5008799;28;20121;-72
2023/01/20 09:55:58;;;;;;;28.63;15.05;;;3.10;99.90;;;1.67;100.00;100700.50;5010897;28;20088;-72
2023/01/20 09:59:04;;;;;;;31.60;16.10;;;3.90;99.90;;;2.35;100.00;100698.88;5009611;28;20053;-73
2023/01/20 10:01:51;;;;;;;30.40;14.57;;;5.10;99.90;;;3.01;100.00;100696.38;4993404;28;20038;-72
2023/01/20 10:04:31;;;;;;;28.40;14.88;;;5.90;99.90;;;3.31;88.58;100685.97;5004663;28;20470;-72
2023/01/20 10:07:23;;;;;;;23.75;13.65;;;7.00;99.90;;;3.45;87.56;100687.16;5010314;28;20121;-73
2023/01/20 10:10:08;;;;;;;26.73;14.38;;;6.50;99.90;;;3.45;84.40;100689.84;5010697;28;20463;-73
2023/01/20 10:12:46;;;;;;;25.08;14.32;;;5.90;99.90;;;3.33;85.51;100690.34;5008667;28;20110;-72
2023/01/20 10:15:26;;;;;;;29.05;14.95;;;5.70;99.90;;;2.68;86.83;100690.06;5005835;28;20108;-72
2023/01/20 10:18:28;;;;;;;27.75;14.27;;;5.00;99.90;;;2.40;87.96;100696.56;5000608;28;20041;-73
2023/01/20 10:21:03;;;;;;;25.27;14.27;;;4.60;99.90;;;2.38;89.33;100706.63;5012454;28;20037;-72